Time;durP1;ratioP1;P1;durP2;ratioP2;P2;SDS_P1;SDS_P2;PMS_P1;PMS_P2;Temp;Humidity;BMP_temperature;BMP_pressure;BME280_temperature;BME280_humidity;BME280_pressure;Samples;Min_cycle;Max_cycle;Signal;HPM_P1;HPM_P2
2023/06/06 00:00:20;;;;;;;3.00;2.70;;;26.30;41.60;27.20;101017.00;;;;5008262;28;20667;-57
2023/06/06 00:02:46;;;;;;;2.72;2.53;;;26.20;41.70;27.20;101015.00;;;;5008251;28;20176;-57
2023/06/06 00:05:13;;;;;;;2.83;2.63;;;26.30;41.70;27.20;101021.00;;;;5008227;28;20187;-58
2023/06/06 00:07:40;;;;;;;2.70;2.50;;;26.20;41.60;27.10;101007.00;;;;5008128;28;20187;-57
2023/06/06 00:10:08;;;;;;;2.70;2.50;;;26.20;41.60;27.10;101014.00;;;;5008007;28;20195;-55
2023/06/06 00:12:34;;;;;;;3.00;2.70;;;26.20;41.70;27.10;101016.00;;;;5008161;28;20570;-57
2023/06/06 00:15:00;;;;;;;2.80;2.60;;;26.20;41.60;27.10;101006.00;;;;5007789;28;20190;-57
2023/06/06 00:17:26;;;;;;;2.70;2.50;;;26.20;41.70;27.10;101014.00;;;;5008795;28;20198;-57
2023/06/06 00:19:52;;;;;;;2.70;2.50;;;26.20;41.70;27.00;101011.00;;;;5012052;28;20192;-59
2023/06/06 00:22:23;;;;;;;2.90;2.70;;;26.20;41.80;27.00;101015.00;;;;5010631;28;20712;-57
2023/06/06 00:24:49;;;;;;;2.90;2.70;;;26.20;41.80;27.00;101019.00;;;;5012108;28;20581;-57
2023/06/06 00:27:15;;;;;;;2.63;2.42;;;26.20;41.80;27.00;101012.00;;;;5012266;28;20659;-58
2023/06/06 00:29:41;;;;;;;2.70;2.50;;;26.10;41.90;27.00;101020.00;;;;5012219;28;20337;-58
2023/06/06 00:32:06;;;;;;;2.95;2.75;;;26.10;41.80;27.00;101011.00;;;;5011955;28;20246;-57
2023/06/06 00:34:32;;;;;;;2.72;2.53;;;26.10;41.80;26.90;101015.00;;;;5011803;28;20263;-57
2023/06/06 00:36:58;;;;;;;3.15;2.85;;;26.10;41.90;26.90;101004.00;;;;5012078;28;20184;-58
2023/06/06 00:39:24;;;;;;;2.90;2.60;;;26.10;41.90;26.90;101013.00;;;;5010316;28;20179;-59
2023/06/06 00:41:50;;;;;;;3.20;2.97;;;26.10;42.00;26.90;101008.00;;;;5011727;28;20194;-57
2023/06/06 00:44:15;;;;;;;3.10;2.80;;;26.10;41.90;26.80;101010.00;;;;5011574;28;20672;-59
2023/06/06 00:46:42;;;;;;;2.65;2.45;;;26.10;42.00;26.80;101013.00;;;;5011665;28;20210;-58
2023/06/06 00:49:10;;;;;;;2.92;2.72;;;26.00;42.10;26.80;101009.00;;;;5011600;28;20184;-59
2023/06/06 00:51:36;;;;;;;3.20;2.90;;;26.00;42.00;26.80;101019.00;;;;4978041;28;20215;-58
2023/06/06 00:54:02;;;;;;;2.97;2.78;;;26.00;42.00;26.80;101006.00;;;;5010060;28;20249;-57
2023/06/06 00:56:29;;;;;;;2.88;2.60;;;26.00;42.10;26.80;101009.00;;;;4993841;28;20188;-59
2023/06/06 00:58:57;;;;;;;3.00;2.80;;;26.00;42.10;26.70;100946.00;;;;5010177;28;20172;-58
2023/06/06 01:01:25;;;;;;;3.20;2.90;;;26.00;42.10;26.70;101007.00;;;;4994050;28;20278;-56
2023/06/06 01:03:52;;;;;;;2.90;2.70;;;26.00;42.10;26.70;101011.00;;;;5011951;28;20253;-58
2023/06/06 01:06:22;;;;;;;2.90;2.70;;;25.90;42.20;26.70;101005.00;;;;4977992;28;20518;-58
2023/06/06 01:08:48;;;;;;;3.75;2.80;;;25.90;42.10;26.60;101002.00;;;;5011708;28;20186;-56
2023/06/06 01:12:00;;;;;;;3.13;2.80;;;25.90;42.20;26.60;100996.00;;;;5011316;28;20195;-57
2023/06/06 01:14:44;;;;;;;3.03;2.83;;;25.90;42.20;26.60;100996.00;;;;5009979;28;20207;-57
2023/06/06 01:17:10;;;;;;;3.22;2.92;;;25.90;42.30;26.60;101002.00;;;;5009906;28;20207;-58
2023/06/06 01:19:37;;;;;;;3.10;2.80;;;25.90;42.30;26.50;100998.00;;;;4993632;28;20202;-57
2023/06/06 01:22:04;;;;;;;3.20;3.00;;;25.90;42.30;26.50;101000.00;;;;5009921;28;20175;-57
2023/06/06 01:24:30;;;;;;;3.25;2.95;;;25.90;42.40;26.50;101008.00;;;;5009282;28;20171;-57
2023/06/06 01:26:56;;;;;;;3.10;2.90;;;25.80;42.30;26.50;101000.00;;;;5011312;28;20554;-58
2023/06/06 01:29:22;;;;;;;3.67;2.92;;;25.80;42.40;26.50;100998.00;;;;5009499;28;20175;-58
2023/06/06 01:31:56;;;;;;;3.05;2.85;;;25.80;42.30;26.50;100987.00;;;;5011670;28;20195;-57
2023/06/06 01:34:42;;;;;;;3.70;3.00;;;25.80;42.60;26.40;100994.00;;;;4996663;28;20207;-58
2023/06/06 01:37:34;;;;;;;3.15;2.80;;;25.80;42.50;26.40;100999.00;;;;5003943;28;20198;-55
2023/06/06 01:40:01;;;;;;;3.83;3.03;;;25.70;42.40;26.40;101002.00;;;;4998037;28;20206;-57
2023/06/06 01:42:29;;;;;;;3.20;2.90;;;25.70;42.50;26.40;101000.00;;;;4994418;28;20187;-56
2023/06/06 01:44:55;;;;;;;3.10;2.88;;;25.80;42.60;26.40;100993.00;;;;4977255;28;20234;-56
2023/06/06 01:47:21;;;;;;;3.40;3.00;;;25.70;42.60;26.30;101013.00;;;;4993848;28;20679;-57
2023/06/06 01:49:46;;;;;;;3.30;3.00;;;25.70;42.60;26.30;100998.00;;;;5016821;28;20203;-56
2023/06/06 01:52:12;;;;;;;3.40;3.10;;;25.70;42.80;26.30;100999.00;;;;4999641;28;20188;-56
2023/06/06 01:54:40;;;;;;;3.30;3.00;;;25.70;42.70;26.30;101002.00;;;;4993544;28;20221;-57
2023/06/06 01:57:07;;;;;;;3.47;3.10;;;25.70;42.80;26.20;101002.00;;;;5010474;28;20282;-56
2023/06/06 01:59:33;;;;;;;3.05;2.70;;;25.70;42.80;26.20;101006.00;;;;5010238;28;20540;-57
2023/06/06 02:01:59;;;;;;;3.13;2.83;;;25.70;42.80;26.20;101004.00;;;;5010803;28;20172;-57
2023/06/06 02:04:43;;;;;;;;;;;;;;;;;;;;;
2023/06/06 02:07:11;;;;;;;3.50;2.83;;;25.60;42.90;26.20;101009.00;;;;5010246;28;20176;-57
2023/06/06 02:09:37;;;;;;;3.40;3.10;;;25.60;42.80;26.10;101006.00;;;;5010594;28;20295;-55
2023/06/06 02:12:06;;;;;;;3.45;3.15;;;25.60;42.90;26.10;101019.00;;;;5010767;28;20255;-56
2023/06/06 02:14:32;;;;;;;3.17;2.88;;;25.60;42.80;26.10;101024.00;;;;5008707;28;20187;-56
2023/06/06 02:17:00;;;;;;;3.47;3.17;;;25.60;42.80;26.10;101025.00;;;;5010104;28;20590;-56
2023/06/06 02:19:44;;;;;;;3.17;2.92;;;25.50;42.80;26.10;101029.00;;;;5009913;28;20612;-57
2023/06/06 02:22:09;;;;;;;3.30;3.00;;;25.50;42.80;26.00;101039.00;;;;5009876;28;20245;-56
2023/06/06 02:24:35;;;;;;;2.75;2.55;;;25.50;42.80;26.00;101041.00;;;;5009667;28;20179;-58
2023/06/06 02:27:09;;;;;;;3.15;2.85;;;25.50;42.80;26.00;101023.00;;;;5009685;28;20644;-57
2023/06/06 02:29:35;;;;;;;3.10;2.90;;;25.50;42.80;26.00;101027.00;;;;5009976;28;20175;-58
2023/06/06 02:32:29;;;;;;;3.00;2.80;;;25.50;42.90;26.00;101016.00;;;;5009917;28;20284;-57
2023/06/06 02:35:04;;;;;;;3.10;2.90;;;25.40;42.90;25.90;101020.00;;;;5009898;28;20245;-57
2023/06/06 02:37:32;;;;;;;3.03;2.80;;;25.40;42.90;25.90;101022.00;;;;5009466;28;20186;-58
2023/06/06 02:39:58;;;;;;;3.00;2.80;;;25.40;43.00;25.90;101027.00;;;;5009595;28;20262;-57
2023/06/06 02:42:34;;;;;;;;;;;;;;;;;;;;;
2023/06/06 02:45:02;;;;;;;5.05;3.30;;;25.30;43.00;25.90;101023.00;;;;5007906;28;20183;-58
2023/06/06 02:47:38;;;;;;;3.28;2.72;;;25.30;43.10;25.90;101024.00;;;;5009143;28;20176;-56
2023/06/06 02:50:22;;;;;;;3.35;3.05;;;25.30;43.10;25.80;101028.00;;;;5008986;28;20206;-56
2023/06/06 02:52:48;;;;;;;3.15;2.90;;;25.30;43.20;25.80;101023.00;;;;5009206;28;20567;-57
2023/06/06 02:55:14;;;;;;;2.90;2.70;;;25.30;43.30;25.80;101028.00;;;;5009026;28;20267;-57
2023/06/06 02:58:24;;;;;;;3.15;2.63;;;25.20;43.30;25.80;101027.00;;;;5009336;28;20183;-57
2023/06/06 03:01:03;;;;;;;2.85;2.65;;;25.20;43.20;25.70;101035.00;;;;5009175;28;20544;-58
2023/06/06 03:03:39;;;;;;;3.08;2.88;;;25.20;43.30;25.70;101030.00;;;;5009448;28;20175;-57
2023/06/06 03:06:06;;;;;;;3.00;2.80;;;25.10;43.20;25.70;101032.00;;;;5009037;28;20197;-57
2023/06/06 03:08:38;;;;;;;3.30;3.00;;;25.10;43.40;25.70;101025.00;;;;5008947;28;20652;-58
2023/06/06 03:11:04;;;;;;;3.00;2.80;;;25.10;43.50;25.70;101035.00;;;;5007781;28;20195;-57
2023/06/06 03:13:30;;;;;;;3.30;3.00;;;25.10;44.20;25.70;101036.00;;;;5009299;28;20299;-56
2023/06/06 03:15:56;;;;;;;3.10;2.80;;;25.10;43.60;25.70;101036.00;;;;5007420;28;20251;-56
2023/06/06 03:18:23;;;;;;;3.00;2.80;;;25.10;43.60;25.70;101034.00;;;;5008998;28;20179;-55
2023/06/06 03:20:51;;;;;;;3.13;2.83;;;25.00;43.60;25.60;101040.00;;;;5009115;28;20278;-59
2023/06/06 03:23:17;;;;;;;3.08;2.83;;;25.00;43.80;25.60;100983.00;;;;5008841;28;20561;-58
2023/06/06 03:25:43;;;;;;;3.30;3.00;;;25.00;43.80;25.60;101034.00;;;;5009367;28;20167;-57
2023/06/06 03:28:10;;;;;;;3.10;2.90;;;25.00;43.80;25.60;101045.00;;;;5009026;28;20216;-58
2023/06/06 03:30:36;;;;;;;3.28;3.00;;;25.00;43.90;25.60;101027.00;;;;5008719;28;20257;-56
2023/06/06 03:33:03;;;;;;;3.45;3.15;;;25.00;43.90;25.60;101052.00;;;;5007323;28;20199;-56
2023/06/06 03:35:30;;;;;;;2.90;2.70;;;24.90;44.00;25.60;101063.00;;;;5008386;28;20187;-57
2023/06/06 03:37:57;;;;;;;2.78;2.58;;;24.90;44.00;25.50;101052.00;;;;5010729;28;20167;-56
2023/06/06 03:40:23;;;;;;;3.20;2.90;;;24.90;44.10;25.50;101059.00;;;;5020534;28;20618;-57
2023/06/06 03:42:52;;;;;;;3.25;2.95;;;24.90;44.10;25.50;101053.00;;;;5009368;28;20207;-58
2023/06/06 03:45:18;;;;;;;3.03;2.80;;;24.90;44.10;25.50;101053.00;;;;5008637;28;20206;-57
2023/06/06 03:47:45;;;;;;;2.92;2.72;;;24.90;44.20;25.50;101052.00;;;;5010488;28;20630;-57
2023/06/06 03:50:10;;;;;;;3.20;2.90;;;24.90;44.20;25.40;101057.00;;;;5009053;28;20664;-57
2023/06/06 03:52:37;;;;;;;2.97;2.78;;;24.80;44.20;25.40;101054.00;;;;5009887;28;20262;-56
2023/06/06 03:55:03;;;;;;;3.55;3.08;;;24.80;44.20;25.40;101064.00;;;;5013128;28;20207;-58
2023/06/06 03:57:29;;;;;;;2.95;2.70;;;24.80;45.00;25.40;101055.00;;;;5010249;28;20178;-58
2023/06/06 03:59:55;;;;;;;3.03;2.83;;;24.80;44.40;25.40;101051.00;;;;5008402;28;20410;-57
2023/06/06 04:02:21;;;;;;;3.20;2.90;;;24.80;44.40;25.40;101051.00;;;;5010194;28;20172;-58
2023/06/06 04:04:51;;;;;;;3.35;3.00;;;24.70;44.40;25.30;101051.00;;;;5008912;28;20167;-58
2023/06/06 04:07:17;;;;;;;3.38;3.08;;;24.70;44.40;25.30;101054.00;;;;5008277;28;20167;-57
2023/06/06 04:09:43;;;;;;;3.10;2.90;;;24.70;44.40;25.30;101052.00;;;;5009359;28;20174;-57
2023/06/06 04:12:10;;;;;;;2.90;2.70;;;24.70;44.50;25.30;101042.00;;;;5009971;28;20540;-57
2023/06/06 04:14:35;;;;;;;3.38;2.92;;;24.70;44.40;25.30;101054.00;;;;5007971;28;20262;-57
2023/06/06 04:17:01;;;;;;;3.33;3.03;;;24.70;44.40;25.30;101048.00;;;;5009548;28;20325;-58
2023/06/06 04:19:28;;;;;;;2.97;2.78;;;24.70;44.50;25.30;101061.00;;;;4992128;28;20191;-58
2023/06/06 04:21:54;;;;;;;2.90;2.70;;;24.60;44.40;25.20;101060.00;;;;5009407;28;20223;-57
2023/06/06 04:24:20;;;;;;;3.00;2.70;;;24.70;44.50;25.20;101065.00;;;;5008202;28;20171;-57
2023/06/06 04:26:46;;;;;;;3.03;2.80;;;24.60;44.50;25.20;101057.00;;;;5008048;28;20347;-57
2023/06/06 04:29:13;;;;;;;3.28;3.00;;;24.60;44.60;25.20;101067.00;;;;5009209;28;20251;-59
2023/06/06 04:31:40;;;;;;;3.38;3.08;;;24.60;44.60;25.20;101061.00;;;;5007839;28;20758;-57
2023/06/06 04:34:09;;;;;;;3.33;3.00;;;24.60;44.60;25.20;101060.00;;;;5009042;28;20204;-57
2023/06/06 04:36:38;;;;;;;3.28;2.97;;;24.60;44.60;25.20;101066.00;;;;5009075;28;20546;-57
2023/06/06 04:39:05;;;;;;;3.28;2.97;;;24.60;44.70;25.20;101064.00;;;;5009325;28;20167;-57
2023/06/06 04:41:31;;;;;;;3.15;2.90;;;24.50;44.60;25.20;101071.00;;;;5008858;28;20198;-57
2023/06/06 04:43:58;;;;;;;2.95;2.75;;;24.50;44.60;25.10;101066.00;;;;5009134;28;20175;-57
2023/06/06 04:46:24;;;;;;;3.25;2.95;;;24.50;44.70;25.10;101070.00;;;;5008966;28;20180;-57
2023/06/06 04:48:53;;;;;;;3.00;2.80;;;24.50;44.60;25.10;101070.00;;;;5007734;28;20202;-55
2023/06/06 04:51:22;;;;;;;2.80;2.60;;;24.50;44.70;25.10;101077.00;;;;5007898;28;20214;-56
2023/06/06 04:53:50;;;;;;;2.97;2.78;;;24.50;44.70;25.10;101077.00;;;;5007846;28;20192;-56
2023/06/06 04:56:17;;;;;;;2.90;2.70;;;24.50;44.60;25.10;101074.00;;;;5008981;28;20180;-55
2023/06/06 04:58:45;;;;;;;2.85;2.65;;;24.50;44.60;25.10;101074.00;;;;5009617;28;20211;-58
2023/06/06 05:01:12;;;;;;;2.70;2.50;;;24.50;44.60;25.10;101077.00;;;;5009295;28;20199;-55
2023/06/06 05:03:38;;;;;;;3.05;2.85;;;24.50;44.60;25.10;101067.00;;;;5009886;28;20208;-58
2023/06/06 05:06:05;;;;;;;2.92;2.70;;;24.50;44.60;25.10;101070.00;;;;5011296;28;20226;-58
2023/06/06 05:08:35;;;;;;;2.90;2.65;;;24.50;44.60;25.10;101061.00;;;;5012410;28;20214;-57
2023/06/06 05:11:01;;;;;;;3.13;2.92;;;24.40;44.50;25.00;101066.00;;;;5012743;28;20250;-57
2023/06/06 05:13:27;;;;;;;3.05;2.80;;;24.50;44.60;25.00;101066.00;;;;5012327;28;20374;-57
2023/06/06 05:15:52;;;;;;;3.00;2.80;;;24.50;44.60;25.00;101062.00;;;;5012079;28;20249;-57
2023/06/06 05:18:20;;;;;;;3.00;2.80;;;24.50;44.60;25.00;101064.00;;;;5012764;28;20207;-57
2023/06/06 05:20:45;;;;;;;3.10;2.85;;;24.40;44.60;25.00;101070.00;;;;5011392;28;20188;-57
2023/06/06 05:23:12;;;;;;;3.00;2.80;;;24.40;44.50;25.00;101072.00;;;;4994638;28;20183;-57
2023/06/06 05:25:38;;;;;;;2.95;2.75;;;24.40;44.50;25.00;101067.00;;;;5012283;28;20681;-55
2023/06/06 05:28:03;;;;;;;2.97;2.77;;;24.40;44.60;25.00;101080.00;;;;5012014;28;20184;-57
2023/06/06 05:30:29;;;;;;;3.23;2.93;;;24.50;44.60;25.00;101071.00;;;;5011863;28;20203;-57
2023/06/06 05:32:55;;;;;;;3.00;2.72;;;24.40;44.50;25.00;101075.00;;;;5012228;28;20258;-57
2023/06/06 05:35:20;;;;;;;2.80;2.60;;;24.40;44.60;25.00;101080.00;;;;5012072;28;20716;-57
2023/06/06 05:37:46;;;;;;;2.40;2.30;;;24.40;44.50;25.00;101076.00;;;;5012027;28;20172;-58
2023/06/06 05:40:12;;;;;;;3.00;2.80;;;24.40;44.60;25.00;101068.00;;;;5012106;28;20257;-57
2023/06/06 05:42:38;;;;;;;2.83;2.63;;;24.40;44.50;25.00;101074.00;;;;5019697;28;20659;-57
2023/06/06 05:45:05;;;;;;;2.72;2.53;;;24.40;44.50;25.00;101076.00;;;;5018302;28;20188;-54
2023/06/06 05:47:31;;;;;;;3.00;2.80;;;24.40;44.60;25.00;101070.00;;;;5011950;28;20629;-58
2023/06/06 05:49:56;;;;;;;3.00;2.80;;;24.40;44.60;25.00;101078.00;;;;5011836;28;20210;-57
2023/06/06 05:52:22;;;;;;;3.13;2.83;;;24.50;44.70;25.00;101077.00;;;;5012099;28;20198;-57
2023/06/06 05:54:48;;;;;;;2.80;2.60;;;24.40;44.60;25.00;101077.00;;;;5012296;28;20306;-57
2023/06/06 05:57:21;;;;;;;3.03;2.73;;;24.50;44.80;24.90;101075.00;;;;5018954;28;20171;-57
2023/06/06 05:59:46;;;;;;;3.10;2.90;;;24.40;44.80;24.90;101075.00;;;;5020128;28;20179;-57
2023/06/06 06:02:14;;;;;;;3.40;3.10;;;24.40;44.80;24.90;101078.00;;;;5011624;28;20172;-58
2023/06/06 06:04:42;;;;;;;3.35;2.83;;;24.40;44.90;24.90;101082.00;;;;5011807;28;20172;-57
2023/06/06 06:07:08;;;;;;;4.90;2.73;;;24.40;44.90;24.90;101082.00;;;;5011831;28;20556;-57
2023/06/06 06:09:35;;;;;;;3.27;2.97;;;24.40;45.00;24.90;101078.00;;;;5011410;28;20186;-57
2023/06/06 06:12:01;;;;;;;3.00;2.70;;;24.40;45.20;24.90;101083.00;;;;5011468;28;20664;-57
2023/06/06 06:14:26;;;;;;;3.27;2.97;;;24.40;45.30;24.90;101076.00;;;;5010655;28;20200;-57
2023/06/06 06:16:52;;;;;;;3.30;2.87;;;24.40;45.80;24.90;101076.00;;;;5010506;28;20255;-57
2023/06/06 06:19:18;;;;;;;3.10;2.70;;;24.40;45.70;24.90;101080.00;;;;5011219;28;20638;-57
2023/06/06 06:21:43;;;;;;;4.38;3.00;;;24.40;45.80;24.90;101082.00;;;;5011733;28;20206;-57
2023/06/06 06:24:09;;;;;;;3.33;2.97;;;24.40;45.80;24.90;101084.00;;;;5012093;28;20182;-56
2023/06/06 06:26:35;;;;;;;3.20;2.90;;;24.40;45.80;24.90;101092.00;;;;5011090;28;20712;-56
2023/06/06 06:29:01;;;;;;;2.90;2.70;;;24.40;45.90;24.90;101083.00;;;;5011387;28;20184;-57
2023/06/06 06:31:27;;;;;;;3.05;2.85;;;24.40;46.20;24.90;101089.00;;;;5010820;28;20208;-59
2023/06/06 06:33:53;;;;;;;3.13;2.93;;;24.40;46.20;24.90;101093.00;;;;5011084;28;20285;-58
2023/06/06 06:36:21;;;;;;;3.22;2.92;;;24.40;46.20;24.90;101091.00;;;;5010583;28;20215;-56
2023/06/06 06:38:46;;;;;;;3.77;2.87;;;24.40;46.30;24.90;101094.00;;;;5011354;28;20228;-58
2023/06/06 06:41:12;;;;;;;3.40;2.90;;;24.40;46.40;24.90;101088.00;;;;5009408;28;20230;-60
2023/06/06 06:43:38;;;;;;;3.10;2.90;;;24.40;46.30;24.90;101083.00;;;;5010806;28;20263;-55
2023/06/06 06:46:03;;;;;;;3.70;2.83;;;24.40;46.20;24.90;101084.00;;;;5010831;28;20183;-56
2023/06/06 06:48:29;;;;;;;3.00;2.80;;;24.40;46.20;24.90;101088.00;;;;5010738;28;20180;-56
2023/06/06 06:50:55;;;;;;;3.37;3.00;;;24.40;46.30;24.90;101092.00;;;;5010865;28;20670;-56
2023/06/06 06:53:25;;;;;;;3.10;2.90;;;24.40;46.10;24.90;101096.00;;;;5010619;28;20202;-55
2023/06/06 06:55:52;;;;;;;2.90;2.70;;;24.40;46.10;24.90;101091.00;;;;5010848;28;20176;-57
2023/06/06 06:58:25;;;;;;;3.40;3.10;;;24.40;46.20;24.90;101100.00;;;;5010510;28;20171;-57
2023/06/06 07:00:53;;;;;;;2.90;2.70;;;24.30;46.10;24.90;101096.00;;;;5010505;28;20187;-56
2023/06/06 07:03:20;;;;;;;3.53;2.90;;;24.40;46.40;24.90;101105.00;;;;5009379;28;20180;-58
2023/06/06 07:05:46;;;;;;;3.50;3.20;;;24.40;46.40;24.90;101094.00;;;;5010300;28;20175;-57
2023/06/06 07:08:12;;;;;;;3.20;2.90;;;24.30;46.30;24.80;101092.00;;;;5010596;28;20261;-57
2023/06/06 07:10:37;;;;;;;2.93;2.70;;;24.40;46.40;24.90;101088.00;;;;5010730;28;20677;-56
2023/06/06 07:13:03;;;;;;;3.87;2.80;;;24.30;47.10;24.90;101092.00;;;;5010295;28;20205;-57
2023/06/06 07:15:29;;;;;;;4.80;2.80;;;24.30;46.40;24.90;101099.00;;;;5010101;28;20183;-56
2023/06/06 07:17:55;;;;;;;3.07;2.80;;;24.40;46.60;24.90;101093.00;;;;5010486;28;20168;-56
2023/06/06 07:20:23;;;;;;;3.07;2.80;;;24.30;46.50;24.90;101094.00;;;;5010044;28;20261;-57
2023/06/06 07:22:50;;;;;;;3.07;2.87;;;24.30;46.50;24.90;101104.00;;;;5010158;28;20175;-57
2023/06/06 07:25:16;;;;;;;3.03;2.83;;;24.30;46.70;24.90;101091.00;;;;5008818;28;20210;-58
2023/06/06 07:27:42;;;;;;;2.85;2.65;;;24.30;46.70;24.90;101099.00;;;;5009136;28;20270;-57
2023/06/06 07:30:12;;;;;;;3.38;3.03;;;24.30;46.80;24.90;101093.00;;;;5009896;28;20206;-57
2023/06/06 07:32:41;;;;;;;3.07;2.80;;;24.30;46.90;24.90;101099.00;;;;5009678;28;20207;-57
2023/06/06 07:35:08;;;;;;;3.10;2.80;;;24.30;47.00;24.90;101096.00;;;;5009870;28;20172;-57
2023/06/06 07:37:36;;;;;;;2.90;2.70;;;24.30;47.10;24.90;101095.00;;;;5009772;28;20594;-57
2023/06/06 07:40:03;;;;;;;3.27;2.83;;;24.30;47.00;24.90;101087.00;;;;5009667;28;20183;-57
2023/06/06 07:42:29;;;;;;;2.90;2.70;;;24.30;47.10;24.70;101084.00;;;;5009926;28;20256;-57
2023/06/06 07:44:55;;;;;;;2.97;2.77;;;24.30;47.10;24.90;101086.00;;;;5009705;28;20653;-58
2023/06/06 07:47:23;;;;;;;3.03;2.50;;;24.30;47.10;24.90;101083.00;;;;5019820;28;20187;-57
2023/06/06 07:49:50;;;;;;;3.17;2.90;;;24.20;47.00;24.90;101090.00;;;;5015281;28;20183;-58
2023/06/06 07:52:16;;;;;;;2.90;2.70;;;24.20;47.10;24.90;101090.00;;;;5009783;28;20179;-57
2023/06/06 07:54:42;;;;;;;3.20;2.90;;;24.30;47.20;24.90;101091.00;;;;5009866;28;20179;-57
2023/06/06 07:57:08;;;;;;;3.13;2.80;;;24.30;47.20;24.90;101090.00;;;;5009581;28;20203;-57
2023/06/06 07:59:34;;;;;;;3.00;2.60;;;24.30;47.30;24.90;101099.00;;;;5009448;28;20742;-57
2023/06/06 08:02:00;;;;;;;3.00;2.80;;;24.30;47.40;24.90;101096.00;;;;5014965;28;20175;-57
2023/06/06 08:04:26;;;;;;;2.90;2.70;;;24.30;47.40;24.90;101096.00;;;;5014315;28;20311;-57
2023/06/06 08:06:53;;;;;;;3.37;3.07;;;24.30;47.50;24.90;101087.00;;;;5008561;28;20214;-57
2023/06/06 08:09:19;;;;;;;3.20;2.90;;;24.30;47.50;24.80;101087.00;;;;5008231;28;20176;-57
2023/06/06 08:11:45;;;;;;;3.17;2.87;;;24.20;47.50;24.80;101079.00;;;;5009379;28;20195;-57
2023/06/06 08:14:11;;;;;;;3.13;2.93;;;24.20;47.60;24.80;101088.00;;;;4975618;28;20238;-58
2023/06/06 08:16:37;;;;;;;3.17;2.87;;;24.20;47.60;24.80;101085.00;;;;5009257;28;20171;-57
2023/06/06 08:19:04;;;;;;;2.87;2.67;;;24.20;47.70;24.80;101086.00;;;;5009597;28;20174;-57
2023/06/06 08:21:29;;;;;;;3.77;3.10;;;24.20;47.70;24.80;101073.00;;;;5009377;28;20583;-57
2023/06/06 08:23:57;;;;;;;3.20;2.90;;;24.20;47.80;24.90;101085.00;;;;5009623;28;20176;-56
2023/06/06 08:26:25;;;;;;;3.40;3.10;;;24.30;47.90;24.80;101083.00;;;;5009260;28;20183;-57
2023/06/06 08:28:53;;;;;;;3.80;3.13;;;24.30;48.00;24.80;101076.00;;;;5009559;28;20732;-58
2023/06/06 08:31:19;;;;;;;3.03;2.80;;;24.30;48.10;24.80;101077.00;;;;5009477;28;20342;-58
2023/06/06 08:33:46;;;;;;;3.07;2.83;;;24.30;48.20;24.80;101080.00;;;;4991876;28;20199;-57
2023/06/06 08:36:12;;;;;;;3.13;2.87;;;24.30;48.20;24.90;101079.00;;;;5009466;28;20238;-58
2023/06/06 08:38:38;;;;;;;3.27;2.93;;;24.30;48.30;24.80;101081.00;;;;5002265;28;20180;-57
2023/06/06 08:41:04;;;;;;;3.30;3.00;;;24.20;48.30;24.90;101077.00;;;;5013184;28;20605;-57
2023/06/06 08:43:30;;;;;;;3.10;2.90;;;24.30;48.50;24.90;101052.00;;;;5013033;28;20311;-57
2023/06/06 08:45:58;;;;;;;4.33;3.13;;;24.30;48.50;24.90;101073.00;;;;4979315;28;20669;-58
2023/06/06 08:48:28;;;;;;;3.10;2.90;;;24.20;48.40;24.90;101065.00;;;;4995769;28;20210;-58
2023/06/06 08:50:58;;;;;;;3.37;3.07;;;24.30;48.60;24.90;101063.00;;;;5012846;28;20203;-57
2023/06/06 08:53:24;;;;;;;3.07;2.87;;;24.20;48.60;24.90;101079.00;;;;4979697;28;20196;-57
2023/06/06 08:55:50;;;;;;;3.53;3.00;;;24.20;48.70;24.90;101070.00;;;;4995662;28;20172;-56
2023/06/06 08:58:16;;;;;;;3.13;2.90;;;24.30;48.90;24.90;101078.00;;;;5011187;28;20178;-56
2023/06/06 09:00:42;;;;;;;3.20;3.00;;;24.30;49.00;24.90;101075.00;;;;5012659;28;20200;-56
2023/06/06 09:03:08;;;;;;;3.13;2.83;;;24.30;49.20;24.90;101082.00;;;;5011538;28;20242;-57
2023/06/06 09:05:37;;;;;;;3.13;2.93;;;24.30;49.20;24.90;101066.00;;;;4994821;28;20264;-57
2023/06/06 09:08:03;;;;;;;3.13;2.87;;;24.30;49.30;24.90;101076.00;;;;4995482;28;20183;-56
2023/06/06 09:10:29;;;;;;;2.93;2.73;;;24.30;49.30;24.90;101076.00;;;;4995224;28;20203;-55
2023/06/06 09:12:55;;;;;;;3.30;3.07;;;24.30;49.30;24.90;101074.00;;;;5012319;28;20761;-56
2023/06/06 09:15:20;;;;;;;3.00;2.80;;;24.30;49.30;24.90;101065.00;;;;5012314;28;20240;-57
2023/06/06 09:17:48;;;;;;;3.00;2.80;;;24.30;49.60;24.90;101073.00;;;;5012374;28;20175;-57
2023/06/06 09:20:15;;;;;;;3.00;2.80;;;24.30;49.50;24.90;101068.00;;;;5010875;28;20196;-57
2023/06/06 09:22:48;;;;;;;3.23;3.00;;;24.30;49.70;24.90;101066.00;;;;5012695;28;20245;-57
2023/06/06 09:25:20;;;;;;;3.27;2.97;;;24.30;49.70;24.90;101064.00;;;;5012136;28;20181;-58
2023/06/06 09:27:47;;;;;;;3.07;2.87;;;24.30;49.90;24.90;101062.00;;;;5011151;28;20172;-57
2023/06/06 09:30:21;;;;;;;3.20;2.90;;;24.30;49.90;24.90;101069.00;;;;5011092;28;20237;-57
2023/06/06 09:33:02;;;;;;;3.10;2.90;;;24.30;50.00;25.00;101069.00;;;;5012644;28;20194;-56
2023/06/06 09:35:31;;;;;;;3.43;3.13;;;24.30;50.00;25.00;101058.00;;;;5012136;28;20179;-57
2023/06/06 09:38:07;;;;;;;3.80;2.90;;;24.30;50.10;25.00;101055.00;;;;5010972;28;20535;-57
2023/06/06 09:40:41;;;;;;;3.00;2.80;;;24.30;50.20;25.00;101052.00;;;;5011975;28;20371;-57
2023/06/06 09:43:07;;;;;;;3.40;2.90;;;24.40;50.30;25.00;101064.00;;;;5010606;28;20172;-57
2023/06/06 09:45:33;;;;;;;3.30;3.03;;;24.30;50.30;25.00;101061.00;;;;5011851;28;20179;-56
2023/06/06 09:47:59;;;;;;;3.27;2.93;;;24.40;50.50;25.00;101055.00;;;;5010551;28;20263;-57
2023/06/06 09:50:24;;;;;;;3.10;2.90;;;24.40;50.60;25.00;101056.00;;;;5010514;28;20590;-58
2023/06/06 09:52:53;;;;;;;3.33;2.90;;;24.40;50.70;25.00;101058.00;;;;4986851;28;20204;-57
2023/06/06 09:55:19;;;;;;;3.13;2.80;;;24.40;50.70;25.00;101041.00;;;;5013537;28;20171;-56
2023/06/06 09:57:45;;;;;;;3.10;2.90;;;24.40;50.90;25.00;101057.00;;;;5010498;28;20168;-57
2023/06/06 10:00:14;;;;;;;3.10;2.90;;;24.40;51.00;25.10;101048.00;;;;4994242;28;20512;-58
2023/06/06 10:02:46;;;;;;;3.30;3.00;;;24.40;51.20;25.10;101047.00;;;;5011672;28;20172;-57
2023/06/06 10:05:13;;;;;;;3.13;2.90;;;24.40;51.30;25.10;101047.00;;;;5010220;28;20176;-57
2023/06/06 10:07:41;;;;;;;3.30;3.00;;;24.40;51.20;25.10;101049.00;;;;5019263;28;20588;-57
2023/06/06 10:10:10;;;;;;;3.40;3.10;;;24.40;51.30;25.10;101044.00;;;;5014810;28;20190;-57
2023/06/06 10:12:36;;;;;;;3.10;2.83;;;24.40;51.40;25.10;101039.00;;;;5010406;28;20175;-56
2023/06/06 10:15:02;;;;;;;3.30;3.00;;;24.40;51.30;25.10;101038.00;;;;5011220;28;20179;-57
2023/06/06 10:17:28;;;;;;;2.93;2.73;;;24.50;51.40;25.10;101027.00;;;;5011396;28;20210;-57
2023/06/06 10:19:53;;;;;;;3.20;3.00;;;24.40;51.60;25.10;101037.00;;;;4993898;28;20689;-57
2023/06/06 10:22:19;;;;;;;3.43;3.13;;;24.50;51.70;25.20;101044.00;;;;4993592;28;20168;-57
2023/06/06 10:24:45;;;;;;;2.90;2.70;;;24.50;51.70;25.20;101043.00;;;;5011149;28;20171;-57
2023/06/06 10:27:21;;;;;;;3.17;2.87;;;24.50;51.40;25.20;101048.00;;;;5011413;28;20262;-56
2023/06/06 10:30:05;;;;;;;2.90;2.70;;;24.50;51.30;25.20;101021.00;;;;4978761;28;20199;-56
2023/06/06 10:32:54;;;;;;;3.37;3.10;;;24.50;51.40;25.20;101036.00;;;;4978742;28;20184;-57
2023/06/06 10:35:19;;;;;;;3.37;3.07;;;24.50;51.40;25.20;101028.00;;;;5009722;28;20207;-57
2023/06/06 10:38:21;;;;;;;2.90;2.70;;;24.50;51.40;25.20;101025.00;;;;4993405;28;20176;-57
2023/06/06 10:40:50;;;;;;;3.40;3.10;;;24.60;51.60;25.20;101022.00;;;;4969084;28;20196;-56
2023/06/06 10:43:34;;;;;;;3.20;2.90;;;24.60;51.60;25.30;101019.00;;;;5003273;28;20180;-56
2023/06/06 10:46:00;;;;;;;3.20;2.90;;;24.60;51.80;25.30;101009.00;;;;5010730;28;20175;-56
2023/06/06 10:48:39;;;;;;;3.25;3.03;;;24.60;51.80;25.30;101010.00;;;;5010569;28;20175;-56
2023/06/06 10:51:06;;;;;;;3.00;2.80;;;24.70;51.90;25.30;101013.00;;;;5010394;28;20286;-57
2023/06/06 10:53:31;;;;;;;3.13;2.90;;;24.70;52.00;25.30;101011.00;;;;5010496;28;20338;-55